sensor_id;sensor_type;location;lat;lon;timestamp;pressure;altitude;pressure_sealevel;temperature
73937;BMP180;59249;59.736;30.568;2023-03-30T00:01:36;100690.00;;;-3.70
73937;BMP180;59249;59.736;30.568;2023-03-30T00:04:05;100700.00;;;-3.70
73937;BMP180;59249;59.736;30.568;2023-03-30T00:06:37;100684.00;;;-3.70
73937;BMP180;59249;59.736;30.568;2023-03-30T00:09:08;100681.00;;;-3.80
73937;BMP180;59249;59.736;30.568;2023-03-30T00:11:44;100704.00;;;-3.80
73937;BMP180;59249;59.736;30.568;2023-03-30T00:14:15;100716.00;;;-3.80
73937;BMP180;59249;59.736;30.568;2023-03-30T00:16:49;100722.00;;;-3.80
73937;BMP180;59249;59.736;30.568;2023-03-30T00:19:25;100719.00;;;-3.80
73937;BMP180;59249;59.736;30.568;2023-03-30T00:21:54;100723.00;;;-3.90
73937;BMP180;59249;59.736;30.568;2023-03-30T00:24:22;100739.00;;;-4.00
73937;BMP180;59249;59.736;30.568;2023-03-30T00:26:52;100738.00;;;-3.90
73937;BMP180;59249;59.736;30.568;2023-03-30T00:29:21;100741.00;;;-4.00
73937;BMP180;59249;59.736;30.568;2023-03-30T00:31:50;100731.00;;;-4.10
73937;BMP180;59249;59.736;30.568;2023-03-30T00:34:19;100726.00;;;-4.20
73937;BMP180;59249;59.736;30.568;2023-03-30T00:36:49;100724.00;;;-4.30
73937;BMP180;59249;59.736;30.568;2023-03-30T00:39:19;100730.00;;;-4.30
73937;BMP180;59249;59.736;30.568;2023-03-30T00:41:49;100733.00;;;-4.40
73937;BMP180;59249;59.736;30.568;2023-03-30T00:47:39;100741.00;;;-4.50
73937;BMP180;59249;59.736;30.568;2023-03-30T00:50:11;100741.00;;;-4.50
73937;BMP180;59249;59.736;30.568;2023-03-30T00:52:42;100726.00;;;-4.50
73937;BMP180;59249;59.736;30.568;2023-03-30T00:55:13;100733.00;;;-4.60
73937;BMP180;59249;59.736;30.568;2023-03-30T00:57:42;100731.00;;;-4.60
73937;BMP180;59249;59.736;30.568;2023-03-30T01:00:13;100736.00;;;-4.60
73937;BMP180;59249;59.736;30.568;2023-03-30T01:02:46;100741.00;;;-4.70
73937;BMP180;59249;59.736;30.568;2023-03-30T01:05:19;100743.00;;;-4.70
73937;BMP180;59249;59.736;30.568;2023-03-30T01:07:50;100750.00;;;-4.70
73937;BMP180;59249;59.736;30.568;2023-03-30T01:10:20;100742.00;;;-4.80
73937;BMP180;59249;59.736;30.568;2023-03-30T01:12:49;100748.00;;;-4.80
73937;BMP180;59249;59.736;30.568;2023-03-30T01:15:19;100740.00;;;-4.90
73937;BMP180;59249;59.736;30.568;2023-03-30T01:18:01;100743.00;;;-4.90
73937;BMP180;59249;59.736;30.568;2023-03-30T01:21:06;100753.00;;;-5.00
73937;BMP180;59249;59.736;30.568;2023-03-30T01:24:25;100755.00;;;-5.00
73937;BMP180;59249;59.736;30.568;2023-03-30T01:27:33;100757.00;;;-5.10
73937;BMP180;59249;59.736;30.568;2023-03-30T01:30:34;100759.00;;;-5.10
73937;BMP180;59249;59.736;30.568;2023-03-30T01:33:29;100765.00;;;-5.10
73937;BMP180;59249;59.736;30.568;2023-03-30T01:36:30;100761.00;;;-5.20
73937;BMP180;59249;59.736;30.568;2023-03-30T01:39:25;100764.00;;;-5.20
73937;BMP180;59249;59.736;30.568;2023-03-30T01:42:08;100753.00;;;-5.20
73937;BMP180;59249;59.736;30.568;2023-03-30T01:44:50;100762.00;;;-5.30
73937;BMP180;59249;59.736;30.568;2023-03-30T01:47:32;100759.00;;;-5.30
73937;BMP180;59249;59.736;30.568;2023-03-30T01:50:08;100760.00;;;-5.30
73937;BMP180;59249;59.736;30.568;2023-03-30T01:52:46;100761.00;;;-5.40
73937;BMP180;59249;59.736;30.568;2023-03-30T01:55:24;100772.00;;;-5.40
73937;BMP180;59249;59.736;30.568;2023-03-30T01:57:58;100774.00;;;-5.50
73937;BMP180;59249;59.736;30.568;2023-03-30T02:00:30;100770.00;;;-5.50
73937;BMP180;59249;59.736;30.568;2023-03-30T02:03:07;100780.00;;;-5.50
73937;BMP180;59249;59.736;30.568;2023-03-30T02:05:40;100776.00;;;-5.50
73937;BMP180;59249;59.736;30.568;2023-03-30T02:08:13;100778.00;;;-5.50
73937;BMP180;59249;59.736;30.568;2023-03-30T02:10:47;100770.00;;;-5.60
73937;BMP180;59249;59.736;30.568;2023-03-30T02:13:18;100774.00;;;-5.60
73937;BMP180;59249;59.736;30.568;2023-03-30T02:15:50;100789.00;;;-5.60
73937;BMP180;59249;59.736;30.568;2023-03-30T02:18:23;100794.00;;;-5.70
73937;BMP180;59249;59.736;30.568;2023-03-30T02:20:52;100778.00;;;-5.70
73937;BMP180;59249;59.736;30.568;2023-03-30T02:23:29;100791.00;;;-5.70
73937;BMP180;59249;59.736;30.568;2023-03-30T02:26:02;100780.00;;;-5.70
73937;BMP180;59249;59.736;30.568;2023-03-30T02:28:34;100786.00;;;-5.70
73937;BMP180;59249;59.736;30.568;2023-03-30T02:31:03;100786.00;;;-5.70
73937;BMP180;59249;59.736;30.568;2023-03-30T02:33:43;100783.00;;;-5.80
73937;BMP180;59249;59.736;30.568;2023-03-30T02:36:35;100778.00;;;-5.80
73937;BMP180;59249;59.736;30.568;2023-03-30T02:39:34;100791.00;;;-5.70
73937;BMP180;59249;59.736;30.568;2023-03-30T02:42:37;100775.00;;;-5.80
73937;BMP180;59249;59.736;30.568;2023-03-30T02:45:38;100774.00;;;-5.80
73937;BMP180;59249;59.736;30.568;2023-03-30T02:48:25;100776.00;;;-5.80
73937;BMP180;59249;59.736;30.568;2023-03-30T02:51:14;100779.00;;;-5.90
73937;BMP180;59249;59.736;30.568;2023-03-30T02:54:19;100785.00;;;-5.90
73937;BMP180;59249;59.736;30.568;2023-03-30T02:57:26;100775.00;;;-5.90
73937;BMP180;59249;59.736;30.568;2023-03-30T03:00:29;100787.00;;;-6.00
73937;BMP180;59249;59.736;30.568;2023-03-30T03:03:12;100777.00;;;-6.00
73937;BMP180;59249;59.736;30.568;2023-03-30T03:05:45;100780.00;;;-6.00
73937;BMP180;59249;59.736;30.568;2023-03-30T03:08:16;100781.00;;;-6.00
73937;BMP180;59249;59.736;30.568;2023-03-30T03:10:48;100787.00;;;-6.00
73937;BMP180;59249;59.736;30.568;2023-03-30T03:13:18;100791.00;;;-6.10
73937;BMP180;59249;59.736;30.568;2023-03-30T03:15:48;100785.00;;;-6.00
73937;BMP180;59249;59.736;30.568;2023-03-30T03:18:23;100790.00;;;-6.10
73937;BMP180;59249;59.736;30.568;2023-03-30T03:20:52;100798.00;;;-6.10
73937;BMP180;59249;59.736;30.568;2023-03-30T03:23:22;100790.00;;;-6.10
73937;BMP180;59249;59.736;30.568;2023-03-30T03:25:54;100788.00;;;-6.20
73937;BMP180;59249;59.736;30.568;2023-03-30T03:28:24;100798.00;;;-6.20
73937;BMP180;59249;59.736;30.568;2023-03-30T03:31:00;100792.00;;;-6.20
73937;BMP180;59249;59.736;30.568;2023-03-30T03:33:30;100792.00;;;-6.20
73937;BMP180;59249;59.736;30.568;2023-03-30T03:36:20;100791.00;;;-6.30
73937;BMP180;59249;59.736;30.568;2023-03-30T03:38:52;100798.00;;;-6.30
73937;BMP180;59249;59.736;30.568;2023-03-30T03:41:21;100807.00;;;-6.30
73937;BMP180;59249;59.736;30.568;2023-03-30T03:43:51;100815.00;;;-6.30
73937;BMP180;59249;59.736;30.568;2023-03-30T03:46:20;100809.00;;;-6.30
73937;BMP180;59249;59.736;30.568;2023-03-30T03:48:49;100810.00;;;-6.30
73937;BMP180;59249;59.736;30.568;2023-03-30T03:51:17;100811.00;;;-6.30
73937;BMP180;59249;59.736;30.568;2023-03-30T03:53:46;100814.00;;;-6.30
73937;BMP180;59249;59.736;30.568;2023-03-30T03:56:15;100826.00;;;-6.30
73937;BMP180;59249;59.736;30.568;2023-03-30T03:58:44;100818.00;;;-6.30
73937;BMP180;59249;59.736;30.568;2023-03-30T04:01:15;100829.00;;;-6.20
73937;BMP180;59249;59.736;30.568;2023-03-30T04:03:44;100824.00;;;-6.20
73937;BMP180;59249;59.736;30.568;2023-03-30T04:06:13;100820.00;;;-6.20
73937;BMP180;59249;59.736;30.568;2023-03-30T04:08:43;100829.00;;;-6.20
73937;BMP180;59249;59.736;30.568;2023-03-30T04:11:20;100830.00;;;-6.10
73937;BMP180;59249;59.736;30.568;2023-03-30T04:14:07;100833.00;;;-6.10
73937;BMP180;59249;59.736;30.568;2023-03-30T04:17:03;100826.00;;;-6.10
73937;BMP180;59249;59.736;30.568;2023-03-30T04:20:01;100843.00;;;-6.10
73937;BMP180;59249;59.736;30.568;2023-03-30T04:22:54;100839.00;;;-6.00
73937;BMP180;59249;59.736;30.568;2023-03-30T04:25:46;100843.00;;;-6.00
73937;BMP180;59249;59.736;30.568;2023-03-30T04:28:56;100836.00;;;-6.00
73937;BMP180;59249;59.736;30.568;2023-03-30T04:31:44;100836.00;;;-6.00
73937;BMP180;59249;59.736;30.568;2023-03-30T04:34:45;100832.00;;;-6.00
73937;BMP180;59249;59.736;30.568;2023-03-30T04:37:32;100835.00;;;-5.80
73937;BMP180;59249;59.736;30.568;2023-03-30T04:40:17;100844.00;;;-5.90
73937;BMP180;59249;59.736;30.568;2023-03-30T04:43:09;100845.00;;;-5.80
73937;BMP180;59249;59.736;30.568;2023-03-30T04:46:00;100851.00;;;-5.70
73937;BMP180;59249;59.736;30.568;2023-03-30T04:48:41;100845.00;;;-5.80
73937;BMP180;59249;59.736;30.568;2023-03-30T04:51:17;100848.00;;;-5.70
73937;BMP180;59249;59.736;30.568;2023-03-30T04:54:03;100847.00;;;-5.50
73937;BMP180;59249;59.736;30.568;2023-03-30T04:57:07;100856.00;;;-5.40
73937;BMP180;59249;59.736;30.568;2023-03-30T04:59:36;100847.00;;;-5.40
73937;BMP180;59249;59.736;30.568;2023-03-30T05:02:23;100859.00;;;-5.20
73937;BMP180;59249;59.736;30.568;2023-03-30T05:05:10;100854.00;;;-5.10
73937;BMP180;59249;59.736;30.568;2023-03-30T05:08:12;100860.00;;;-4.90
73937;BMP180;59249;59.736;30.568;2023-03-30T05:10:43;100851.00;;;-4.90
73937;BMP180;59249;59.736;30.568;2023-03-30T05:13:45;100859.00;;;-4.80
73937;BMP180;59249;59.736;30.568;2023-03-30T05:16:46;100863.00;;;-4.80
73937;BMP180;59249;59.736;30.568;2023-03-30T05:19:17;100870.00;;;-4.80
73937;BMP180;59249;59.736;30.568;2023-03-30T05:22:10;100870.00;;;-4.90
73937;BMP180;59249;59.736;30.568;2023-03-30T05:24:58;100858.00;;;-4.80
73937;BMP180;59249;59.736;30.568;2023-03-30T05:27:52;100852.00;;;-4.90
73937;BMP180;59249;59.736;30.568;2023-03-30T05:30:39;100856.00;;;-5.00
73937;BMP180;59249;59.736;30.568;2023-03-30T05:33:27;100859.00;;;-4.90
73937;BMP180;59249;59.736;30.568;2023-03-30T05:36:16;100863.00;;;-5.00
73937;BMP180;59249;59.736;30.568;2023-03-30T05:39:08;100863.00;;;-5.00
73937;BMP180;59249;59.736;30.568;2023-03-30T05:42:11;100858.00;;;-4.90
73937;BMP180;59249;59.736;30.568;2023-03-30T05:44:46;100862.00;;;-4.80
73937;BMP180;59249;59.736;30.568;2023-03-30T05:47:33;100865.00;;;-4.60
73937;BMP180;59249;59.736;30.568;2023-03-30T05:50:21;100868.00;;;-4.50
73937;BMP180;59249;59.736;30.568;2023-03-30T05:52:57;100872.00;;;-4.40
73937;BMP180;59249;59.736;30.568;2023-03-30T05:55:43;100872.00;;;-4.30
73937;BMP180;59249;59.736;30.568;2023-03-30T05:58:37;100874.00;;;-4.20
73937;BMP180;59249;59.736;30.568;2023-03-30T06:01:12;100873.00;;;-4.20
73937;BMP180;59249;59.736;30.568;2023-03-30T06:03:44;100874.00;;;-4.10
73937;BMP180;59249;59.736;30.568;2023-03-30T06:06:13;100875.00;;;-4.10
73937;BMP180;59249;59.736;30.568;2023-03-30T06:08:45;100873.00;;;-4.00
73937;BMP180;59249;59.736;30.568;2023-03-30T06:11:19;100870.00;;;-3.90
73937;BMP180;59249;59.736;30.568;2023-03-30T06:14:05;100871.00;;;-3.80
73937;BMP180;59249;59.736;30.568;2023-03-30T06:16:34;100873.00;;;-3.80
73937;BMP180;59249;59.736;30.568;2023-03-30T06:19:05;100873.00;;;-3.60
73937;BMP180;59249;59.736;30.568;2023-03-30T06:21:34;100866.00;;;-3.60
73937;BMP180;59249;59.736;30.568;2023-03-30T06:24:26;100870.00;;;-3.50
73937;BMP180;59249;59.736;30.568;2023-03-30T06:27:02;100865.00;;;-3.40
73937;BMP180;59249;59.736;30.568;2023-03-30T06:29:36;100872.00;;;-3.30
73937;BMP180;59249;59.736;30.568;2023-03-30T06:32:06;100875.00;;;-3.20
73937;BMP180;59249;59.736;30.568;2023-03-30T06:34:52;100890.00;;;-3.20
73937;BMP180;59249;59.736;30.568;2023-03-30T06:37:27;100881.00;;;-3.10
73937;BMP180;59249;59.736;30.568;2023-03-30T06:39:58;100882.00;;;-3.00
73937;BMP180;59249;59.736;30.568;2023-03-30T06:42:32;100898.00;;;-3.00
73937;BMP180;59249;59.736;30.568;2023-03-30T06:45:31;100889.00;;;-3.00
73937;BMP180;59249;59.736;30.568;2023-03-30T06:48:05;100909.00;;;-2.90
73937;BMP180;59249;59.736;30.568;2023-03-30T06:50:39;100911.00;;;-2.80
73937;BMP180;59249;59.736;30.568;2023-03-30T06:53:23;100912.00;;;-2.70
73937;BMP180;59249;59.736;30.568;2023-03-30T06:55:55;100904.00;;;-2.80
73937;BMP180;59249;59.736;30.568;2023-03-30T06:58:28;100903.00;;;-2.60
73937;BMP180;59249;59.736;30.568;2023-03-30T07:01:09;100916.00;;;-2.70
73937;BMP180;59249;59.736;30.568;2023-03-30T07:04:07;100907.00;;;-2.60
73937;BMP180;59249;59.736;30.568;2023-03-30T07:06:59;100916.00;;;-2.50
73937;BMP180;59249;59.736;30.568;2023-03-30T07:09:28;100919.00;;;-2.50
73937;BMP180;59249;59.736;30.568;2023-03-30T07:11:57;100925.00;;;-2.40
73937;BMP180;59249;59.736;30.568;2023-03-30T07:14:26;100917.00;;;-2.40
73937;BMP180;59249;59.736;30.568;2023-03-30T07:16:56;100915.00;;;-2.40
73937;BMP180;59249;59.736;30.568;2023-03-30T07:19:25;100922.00;;;-2.40
73937;BMP180;59249;59.736;30.568;2023-03-30T07:21:54;100916.00;;;-2.30
73937;BMP180;59249;59.736;30.568;2023-03-30T07:24:25;100921.00;;;-2.20
73937;BMP180;59249;59.736;30.568;2023-03-30T07:26:56;100926.00;;;-2.20
73937;BMP180;59249;59.736;30.568;2023-03-30T07:29:24;100919.00;;;-2.30
73937;BMP180;59249;59.736;30.568;2023-03-30T07:31:57;100917.00;;;-2.40
73937;BMP180;59249;59.736;30.568;2023-03-30T07:34:25;100913.00;;;-2.30
73937;BMP180;59249;59.736;30.568;2023-03-30T07:36:56;100926.00;;;-2.30
73937;BMP180;59249;59.736;30.568;2023-03-30T07:39:30;100931.00;;;-2.30
73937;BMP180;59249;59.736;30.568;2023-03-30T07:42:03;100925.00;;;-2.20
73937;BMP180;59249;59.736;30.568;2023-03-30T07:44:32;100927.00;;;-2.10
73937;BMP180;59249;59.736;30.568;2023-03-30T07:47:06;100926.00;;;-2.10
73937;BMP180;59249;59.736;30.568;2023-03-30T07:49:36;100924.00;;;-2.10
73937;BMP180;59249;59.736;30.568;2023-03-30T07:52:05;100917.00;;;-2.00
73937;BMP180;59249;59.736;30.568;2023-03-30T07:54:49;100928.00;;;-2.00
73937;BMP180;59249;59.736;30.568;2023-03-30T07:57:22;100923.00;;;-2.00
73937;BMP180;59249;59.736;30.568;2023-03-30T07:59:52;100929.00;;;-1.90
73937;BMP180;59249;59.736;30.568;2023-03-30T08:02:40;100943.00;;;-1.80
73937;BMP180;59249;59.736;30.568;2023-03-30T08:05:18;100943.00;;;-1.70
73937;BMP180;59249;59.736;30.568;2023-03-30T08:08:03;100944.00;;;-1.70
73937;BMP180;59249;59.736;30.568;2023-03-30T08:10:34;100939.00;;;-1.60
73937;BMP180;59249;59.736;30.568;2023-03-30T08:13:03;100930.00;;;-1.40
73937;BMP180;59249;59.736;30.568;2023-03-30T08:15:49;100943.00;;;-1.40
73937;BMP180;59249;59.736;30.568;2023-03-30T08:18:22;100947.00;;;-1.30
73937;BMP180;59249;59.736;30.568;2023-03-30T08:20:57;100950.00;;;-1.20
73937;BMP180;59249;59.736;30.568;2023-03-30T08:23:48;100953.00;;;-1.30
73937;BMP180;59249;59.736;30.568;2023-03-30T08:26:18;100946.00;;;-1.30
73937;BMP180;59249;59.736;30.568;2023-03-30T08:28:50;100936.00;;;-1.30
73937;BMP180;59249;59.736;30.568;2023-03-30T08:31:19;100943.00;;;-1.30
73937;BMP180;59249;59.736;30.568;2023-03-30T08:33:51;100941.00;;;-1.20
73937;BMP180;59249;59.736;30.568;2023-03-30T08:36:20;100953.00;;;-1.20
73937;BMP180;59249;59.736;30.568;2023-03-30T08:38:49;100949.00;;;-1.20
73937;BMP180;59249;59.736;30.568;2023-03-30T08:41:44;100950.00;;;-1.00
73937;BMP180;59249;59.736;30.568;2023-03-30T08:44:32;100950.00;;;-1.00
73937;BMP180;59249;59.736;30.568;2023-03-30T08:47:05;100947.00;;;-0.90
73937;BMP180;59249;59.736;30.568;2023-03-30T08:49:43;100948.00;;;-0.70
73937;BMP180;59249;59.736;30.568;2023-03-30T08:52:24;100947.00;;;-0.70
73937;BMP180;59249;59.736;30.568;2023-03-30T08:54:53;100950.00;;;-0.70
73937;BMP180;59249;59.736;30.568;2023-03-30T08:57:33;100953.00;;;-0.80
73937;BMP180;59249;59.736;30.568;2023-03-30T09:00:16;100963.00;;;-0.70
73937;BMP180;59249;59.736;30.568;2023-03-30T09:03:00;100960.00;;;-0.70
73937;BMP180;59249;59.736;30.568;2023-03-30T09:05:41;100959.00;;;-0.50
73937;BMP180;59249;59.736;30.568;2023-03-30T09:08:17;100950.00;;;-0.50
73937;BMP180;59249;59.736;30.568;2023-03-30T09:10:51;100957.00;;;-0.40
73937;BMP180;59249;59.736;30.568;2023-03-30T09:13:27;100950.00;;;-0.40
73937;BMP180;59249;59.736;30.568;2023-03-30T09:16:03;100947.00;;;-0.40
73937;BMP180;59249;59.736;30.568;2023-03-30T09:18:43;100953.00;;;-0.30
73937;BMP180;59249;59.736;30.568;2023-03-30T09:21:18;100942.00;;;-0.30
73937;BMP180;59249;59.736;30.568;2023-03-30T09:23:50;100947.00;;;-0.40
73937;BMP180;59249;59.736;30.568;2023-03-30T09:26:27;100943.00;;;-0.40
73937;BMP180;59249;59.736;30.568;2023-03-30T09:29:07;100936.00;;;-0.30
73937;BMP180;59249;59.736;30.568;2023-03-30T09:31:44;100942.00;;;-0.30
73937;BMP180;59249;59.736;30.568;2023-03-30T09:34:24;100933.00;;;-0.20
73937;BMP180;59249;59.736;30.568;2023-03-30T09:36:58;100945.00;;;-0.10
73937;BMP180;59249;59.736;30.568;2023-03-30T09:39:34;100939.00;;;-0.20
73937;BMP180;59249;59.736;30.568;2023-03-30T09:42:12;100943.00;;;0.00
73937;BMP180;59249;59.736;30.568;2023-03-30T09:44:47;100943.00;;;0.10
73937;BMP180;59249;59.736;30.568;2023-03-30T09:47:22;100936.00;;;0.20
73937;BMP180;59249;59.736;30.568;2023-03-30T09:49:59;100937.00;;;0.10
73937;BMP180;59249;59.736;30.568;2023-03-30T09:52:32;100935.00;;;0.10
73937;BMP180;59249;59.736;30.568;2023-03-30T09:55:19;100928.00;;;0.10
73937;BMP180;59249;59.736;30.568;2023-03-30T09:58:10;100922.00;;;0.20
73937;BMP180;59249;59.736;30.568;2023-03-30T10:00:40;100932.00;;;0.10
73937;BMP180;59249;59.736;30.568;2023-03-30T10:03:19;100931.00;;;0.20
73937;BMP180;59249;59.736;30.568;2023-03-30T10:06:00;100925.00;;;0.30
73937;BMP180;59249;59.736;30.568;2023-03-30T10:08:41;100919.00;;;0.20
73937;BMP180;59249;59.736;30.568;2023-03-30T10:11:18;100919.00;;;0.30
73937;BMP180;59249;59.736;30.568;2023-03-30T10:13:51;100919.00;;;0.50
73937;BMP180;59249;59.736;30.568;2023-03-30T10:16:29;100926.00;;;0.50
73937;BMP180;59249;59.736;30.568;2023-03-30T10:19:01;100917.00;;;0.60
73937;BMP180;59249;59.736;30.568;2023-03-30T10:21:35;100920.00;;;0.60
73937;BMP180;59249;59.736;30.568;2023-03-30T10:24:18;100917.00;;;0.60
73937;BMP180;59249;59.736;30.568;2023-03-30T10:26:54;100913.00;;;0.70
73937;BMP180;59249;59.736;30.568;2023-03-30T10:29:26;100904.00;;;0.60
73937;BMP180;59249;59.736;30.568;2023-03-30T10:32:01;100914.00;;;0.70
73937;BMP180;59249;59.736;30.568;2023-03-30T10:34:42;100910.00;;;0.80
73937;BMP180;59249;59.736;30.568;2023-03-30T10:37:40;100911.00;;;0.70
73937;BMP180;59249;59.736;30.568;2023-03-30T10:40:17;100908.00;;;0.80
73937;BMP180;59249;59.736;30.568;2023-03-30T10:42:52;100918.00;;;0.90
73937;BMP180;59249;59.736;30.568;2023-03-30T10:45:27;100922.00;;;1.10
73937;BMP180;59249;59.736;30.568;2023-03-30T10:51:08;100913.00;;;1.10
73937;BMP180;59249;59.736;30.568;2023-03-30T10:53:47;100900.00;;;1.20
73937;BMP180;59249;59.736;30.568;2023-03-30T10:56:26;100904.00;;;1.30
73937;BMP180;59249;59.736;30.568;2023-03-30T10:59:21;100906.00;;;1.30
73937;BMP180;59249;59.736;30.568;2023-03-30T11:02:25;100901.00;;;1.20
73937;BMP180;59249;59.736;30.568;2023-03-30T11:05:10;100899.00;;;1.30
73937;BMP180;59249;59.736;30.568;2023-03-30T11:07:47;100902.00;;;1.50
73937;BMP180;59249;59.736;30.568;2023-03-30T11:10:20;100906.00;;;1.40
73937;BMP180;59249;59.736;30.568;2023-03-30T11:12:59;100900.00;;;1.50
73937;BMP180;59249;59.736;30.568;2023-03-30T11:15:33;100896.00;;;1.50
73937;BMP180;59249;59.736;30.568;2023-03-30T11:18:12;100885.00;;;1.70
73937;BMP180;59249;59.736;30.568;2023-03-30T11:20:47;100882.00;;;1.80
73937;BMP180;59249;59.736;30.568;2023-03-30T11:23:26;100886.00;;;1.90
73937;BMP180;59249;59.736;30.568;2023-03-30T11:26:02;100895.00;;;1.90
73937;BMP180;59249;59.736;30.568;2023-03-30T11:28:49;100883.00;;;2.00
73937;BMP180;59249;59.736;30.568;2023-03-30T11:31:47;100887.00;;;2.20
73937;BMP180;59249;59.736;30.568;2023-03-30T11:34:27;100876.00;;;2.20
73937;BMP180;59249;59.736;30.568;2023-03-30T11:37:07;100880.00;;;2.40
73937;BMP180;59249;59.736;30.568;2023-03-30T11:39:49;100880.00;;;2.40
73937;BMP180;59249;59.736;30.568;2023-03-30T11:42:24;100872.00;;;2.60
73937;BMP180;59249;59.736;30.568;2023-03-30T11:44:59;100882.00;;;2.60
73937;BMP180;59249;59.736;30.568;2023-03-30T11:47:44;100875.00;;;2.50
73937;BMP180;59249;59.736;30.568;2023-03-30T11:50:31;100864.00;;;2.20
73937;BMP180;59249;59.736;30.568;2023-03-30T11:53:19;100862.00;;;2.30
73937;BMP180;59249;59.736;30.568;2023-03-30T11:56:01;100864.00;;;2.40
73937;BMP180;59249;59.736;30.568;2023-03-30T11:58:35;100855.00;;;2.50
73937;BMP180;59249;59.736;30.568;2023-03-30T12:01:27;100851.00;;;2.50
73937;BMP180;59249;59.736;30.568;2023-03-30T12:04:05;100853.00;;;2.60
73937;BMP180;59249;59.736;30.568;2023-03-30T12:06:39;100847.00;;;2.70
73937;BMP180;59249;59.736;30.568;2023-03-30T12:09:22;100836.00;;;2.90
73937;BMP180;59249;59.736;30.568;2023-03-30T12:12:02;100830.00;;;2.90
73937;BMP180;59249;59.736;30.568;2023-03-30T12:14:52;100848.00;;;2.70
73937;BMP180;59249;59.736;30.568;2023-03-30T12:17:38;100832.00;;;2.60
73937;BMP180;59249;59.736;30.568;2023-03-30T12:20:28;100829.00;;;2.80
73937;BMP180;59249;59.736;30.568;2023-03-30T12:26:15;100827.00;;;2.90
73937;BMP180;59249;59.736;30.568;2023-03-30T12:28:57;100836.00;;;2.70
73937;BMP180;59249;59.736;30.568;2023-03-30T12:32:04;100825.00;;;2.90
73937;BMP180;59249;59.736;30.568;2023-03-30T12:34:39;100820.00;;;3.30
73937;BMP180;59249;59.736;30.568;2023-03-30T12:37:11;100829.00;;;3.20
73937;BMP180;59249;59.736;30.568;2023-03-30T12:39:45;100822.00;;;3.20
73937;BMP180;59249;59.736;30.568;2023-03-30T12:42:22;100823.00;;;3.30
73937;BMP180;59249;59.736;30.568;2023-03-30T12:48:35;100818.00;;;3.90
73937;BMP180;59249;59.736;30.568;2023-03-30T12:51:39;100818.00;;;4.00
73937;BMP180;59249;59.736;30.568;2023-03-30T12:57:55;100818.00;;;4.00
73937;BMP180;59249;59.736;30.568;2023-03-30T13:00:47;100821.00;;;4.00
73937;BMP180;59249;59.736;30.568;2023-03-30T13:03:37;100820.00;;;3.70
73937;BMP180;59249;59.736;30.568;2023-03-30T13:06:25;100815.00;;;3.40
73937;BMP180;59249;59.736;30.568;2023-03-30T13:09:27;100813.00;;;3.20
73937;BMP180;59249;59.736;30.568;2023-03-30T13:12:29;100804.00;;;3.40
73937;BMP180;59249;59.736;30.568;2023-03-30T13:15:03;100799.00;;;3.50
73937;BMP180;59249;59.736;30.568;2023-03-30T13:17:49;100809.00;;;3.90
73937;BMP180;59249;59.736;30.568;2023-03-30T13:20:30;100806.00;;;4.00
73937;BMP180;59249;59.736;30.568;2023-03-30T13:23:16;100810.00;;;4.00
73937;BMP180;59249;59.736;30.568;2023-03-30T13:26:02;100803.00;;;4.10
73937;BMP180;59249;59.736;30.568;2023-03-30T13:28:44;100788.00;;;4.10
73937;BMP180;59249;59.736;30.568;2023-03-30T13:37:53;100791.00;;;3.80
73937;BMP180;59249;59.736;30.568;2023-03-30T13:40:52;100793.00;;;3.60
73937;BMP180;59249;59.736;30.568;2023-03-30T13:43:50;100791.00;;;3.40
73937;BMP180;59249;59.736;30.568;2023-03-30T13:46:35;100786.00;;;3.40
73937;BMP180;59249;59.736;30.568;2023-03-30T13:49:16;100787.00;;;3.30
73937;BMP180;59249;59.736;30.568;2023-03-30T13:52:01;100784.00;;;3.20
73937;BMP180;59249;59.736;30.568;2023-03-30T13:54:33;100783.00;;;3.00
73937;BMP180;59249;59.736;30.568;2023-03-30T13:57:09;100770.00;;;3.00
73937;BMP180;59249;59.736;30.568;2023-03-30T13:59:42;100777.00;;;2.80
73937;BMP180;59249;59.736;30.568;2023-03-30T14:02:17;100778.00;;;3.00
73937;BMP180;59249;59.736;30.568;2023-03-30T14:04:48;100785.00;;;3.00
73937;BMP180;59249;59.736;30.568;2023-03-30T14:07:18;100787.00;;;3.10
73937;BMP180;59249;59.736;30.568;2023-03-30T14:10:10;100771.00;;;3.00
73937;BMP180;59249;59.736;30.568;2023-03-30T14:12:42;100777.00;;;3.10
73937;BMP180;59249;59.736;30.568;2023-03-30T14:15:17;100787.00;;;3.00
73937;BMP180;59249;59.736;30.568;2023-03-30T14:17:50;100758.00;;;3.00
73937;BMP180;59249;59.736;30.568;2023-03-30T14:20:33;100766.00;;;3.10
73937;BMP180;59249;59.736;30.568;2023-03-30T14:23:15;100758.00;;;3.00
73937;BMP180;59249;59.736;30.568;2023-03-30T14:25:46;100764.00;;;3.00
73937;BMP180;59249;59.736;30.568;2023-03-30T14:28:19;100761.00;;;3.00
73937;BMP180;59249;59.736;30.568;2023-03-30T14:30:50;100761.00;;;3.10
73937;BMP180;59249;59.736;30.568;2023-03-30T14:33:25;100756.00;;;3.10
73937;BMP180;59249;59.736;30.568;2023-03-30T14:35:56;100755.00;;;3.00
73937;BMP180;59249;59.736;30.568;2023-03-30T14:38:28;100759.00;;;3.00
73937;BMP180;59249;59.736;30.568;2023-03-30T14:41:05;100747.00;;;3.00
73937;BMP180;59249;59.736;30.568;2023-03-30T14:43:38;100751.00;;;2.90
73937;BMP180;59249;59.736;30.568;2023-03-30T14:46:09;100759.00;;;2.90
73937;BMP180;59249;59.736;30.568;2023-03-30T14:48:42;100750.00;;;2.80
73937;BMP180;59249;59.736;30.568;2023-03-30T14:51:23;100746.00;;;2.70
73937;BMP180;59249;59.736;30.568;2023-03-30T14:54:01;100735.00;;;2.60
73937;BMP180;59249;59.736;30.568;2023-03-30T14:56:31;100743.00;;;2.70
73937;BMP180;59249;59.736;30.568;2023-03-30T14:59:13;100746.00;;;2.80
73937;BMP180;59249;59.736;30.568;2023-03-30T15:01:45;100733.00;;;2.50
73937;BMP180;59249;59.736;30.568;2023-03-30T15:04:16;100729.00;;;2.30
73937;BMP180;59249;59.736;30.568;2023-03-30T15:06:47;100737.00;;;2.30
73937;BMP180;59249;59.736;30.568;2023-03-30T15:09:18;100724.00;;;2.30
73937;BMP180;59249;59.736;30.568;2023-03-30T15:11:51;100737.00;;;2.20
73937;BMP180;59249;59.736;30.568;2023-03-30T15:14:31;100731.00;;;2.00
73937;BMP180;59249;59.736;30.568;2023-03-30T15:17:08;100730.00;;;2.10
73937;BMP180;59249;59.736;30.568;2023-03-30T15:19:42;100730.00;;;2.00